createdAt,value
2023-05-07T00:02:42.518Z,9.85
2023-05-07T00:05:28.048Z,9.30
2023-05-07T00:08:13.514Z,9.98
2023-05-07T00:10:58.447Z,10.18
2023-05-07T00:13:43.955Z,9.00
2023-05-07T00:16:29.230Z,7.45
2023-05-07T00:19:14.642Z,8.20
2023-05-07T00:21:59.890Z,8.20
2023-05-07T00:24:45.208Z,8.48
2023-05-07T00:27:30.465Z,7.45
2023-05-07T00:30:15.828Z,8.43
2023-05-07T00:33:00.969Z,7.68
2023-05-07T00:35:46.245Z,8.50
2023-05-07T00:38:31.438Z,9.00
2023-05-07T00:41:16.878Z,7.50
2023-05-07T00:44:03.578Z,7.00
2023-05-07T00:46:50.960Z,8.35
2023-05-07T00:49:42.107Z,6.97
2023-05-07T00:52:28.777Z,7.47
2023-05-07T00:55:15.569Z,8.35
2023-05-07T00:58:01.130Z,9.18
2023-05-07T01:00:46.232Z,8.50
2023-05-07T01:03:31.601Z,8.80
2023-05-07T01:06:18.778Z,8.00
2023-05-07T01:09:05.701Z,7.35
2023-05-07T01:11:52.827Z,7.80
2023-05-07T01:14:38.352Z,7.93
2023-05-07T01:17:24.125Z,8.23
2023-05-07T01:20:11.488Z,8.75
2023-05-07T01:22:58.552Z,7.95
2023-05-07T01:25:43.759Z,8.20
2023-05-07T01:28:29.095Z,8.77
2023-05-07T01:31:15.379Z,8.50
2023-05-07T01:34:04.221Z,8.18
2023-05-07T01:36:49.910Z,8.65
2023-05-07T01:39:37.643Z,7.78
2023-05-07T01:42:23.036Z,7.13
2023-05-07T01:45:08.877Z,7.45
2023-05-07T01:47:56.343Z,6.85
2023-05-07T01:50:42.464Z,7.80
2023-05-07T01:53:29.155Z,6.90
2023-05-07T01:56:14.338Z,7.90
2023-05-07T01:58:59.606Z,7.93
2023-05-07T02:01:44.975Z,7.72
2023-05-07T02:04:30.291Z,8.40
2023-05-07T02:07:15.762Z,8.77
2023-05-07T02:10:00.895Z,7.43
2023-05-07T02:12:46.134Z,8.60
2023-05-07T02:15:31.227Z,8.27
2023-05-07T02:18:17.642Z,7.45
2023-05-07T02:21:03.007Z,8.75
2023-05-07T02:23:48.103Z,8.27
2023-05-07T02:26:33.498Z,8.30
2023-05-07T02:29:18.810Z,9.07
2023-05-07T02:32:04.181Z,8.15
2023-05-07T02:34:51.995Z,8.68
2023-05-07T02:37:37.183Z,8.45
2023-05-07T02:40:22.680Z,9.02
2023-05-07T02:43:08.179Z,8.30
2023-05-07T02:46:07.547Z,7.82
2023-05-07T02:48:53.011Z,7.25
2023-05-07T02:51:38.272Z,7.82
2023-05-07T02:54:23.513Z,8.65
2023-05-07T02:57:08.774Z,8.52
2023-05-07T02:59:54.013Z,8.82
2023-05-07T03:02:39.342Z,9.70
2023-05-07T03:05:24.660Z,10.48
2023-05-07T03:08:10.687Z,11.88
2023-05-07T03:10:56.006Z,10.57
2023-05-07T03:13:41.396Z,10.60
2023-05-07T03:16:26.948Z,9.98
2023-05-07T03:19:12.198Z,10.85
2023-05-07T03:21:57.500Z,11.07
2023-05-07T03:24:43.451Z,10.65
2023-05-07T03:27:28.841Z,10.98
2023-05-07T03:30:14.194Z,10.02
2023-05-07T03:32:59.483Z,9.07
2023-05-07T03:35:44.790Z,9.70
2023-05-07T03:38:30.006Z,10.00
2023-05-07T03:41:15.477Z,8.85
2023-05-07T03:44:00.735Z,9.35
2023-05-07T03:46:46.235Z,12.70
2023-05-07T03:49:31.490Z,11.68
2023-05-07T03:52:16.971Z,11.32
2023-05-07T03:55:02.310Z,11.40
2023-05-07T03:57:47.800Z,10.93
2023-05-07T04:00:35.104Z,11.48
2023-05-07T04:03:20.358Z,11.68
2023-05-07T04:06:05.529Z,12.07
2023-05-07T04:08:51.014Z,12.20
2023-05-07T04:11:37.033Z,16.38
2023-05-07T04:14:22.306Z,15.88
2023-05-07T04:17:08.221Z,14.52
2023-05-07T04:19:53.150Z,13.77
2023-05-07T04:22:38.571Z,12.23
2023-05-07T04:25:27.793Z,11.80
2023-05-07T04:30:58.812Z,12.30
2023-05-07T04:33:43.856Z,13.20
2023-05-07T04:36:30.183Z,13.40
2023-05-07T04:39:15.983Z,13.02
2023-05-07T04:42:01.629Z,12.80
2023-05-07T04:44:46.751Z,10.38
2023-05-07T04:47:32.078Z,12.07
2023-05-07T04:50:18.742Z,11.02
2023-05-07T04:53:04.111Z,11.77
2023-05-07T04:55:49.335Z,12.50
2023-05-07T04:58:34.686Z,13.02
2023-05-07T05:01:20.024Z,12.63
2023-05-07T05:04:05.475Z,13.57
2023-05-07T05:06:50.752Z,11.43
2023-05-07T05:09:35.913Z,12.20
2023-05-07T05:12:21.367Z,12.82
2023-05-07T05:15:07.303Z,10.95
2023-05-07T05:17:52.837Z,11.48
2023-05-07T05:20:38.009Z,10.50
2023-05-07T05:23:23.303Z,10.43
2023-05-07T05:26:08.589Z,9.15
2023-05-07T05:28:53.745Z,8.55
2023-05-07T05:31:39.075Z,10.32
2023-05-07T05:34:24.325Z,8.68
2023-05-07T05:37:09.653Z,9.05
2023-05-07T05:39:55.826Z,9.13
2023-05-07T05:42:41.200Z,8.85
2023-05-07T05:45:26.874Z,9.15
2023-05-07T05:48:12.938Z,9.90
2023-05-07T05:50:58.208Z,8.88
2023-05-07T05:53:43.515Z,8.65
2023-05-07T05:56:28.926Z,8.95
2023-05-07T05:59:14.043Z,8.60
2023-05-07T06:01:59.447Z,9.63
2023-05-07T06:04:44.635Z,8.98
2023-05-07T06:07:29.742Z,8.98
2023-05-07T06:10:15.112Z,9.88
2023-05-07T06:13:00.468Z,9.77
2023-05-07T06:15:45.767Z,9.70
2023-05-07T06:18:31.201Z,9.43
2023-05-07T06:21:17.035Z,9.85
2023-05-07T06:24:03.322Z,10.13
2023-05-07T06:26:48.866Z,9.60
2023-05-07T06:29:34.770Z,9.60
2023-05-07T06:32:20.164Z,9.60
2023-05-07T06:35:05.799Z,10.70
2023-05-07T06:37:51.177Z,10.60
2023-05-07T06:40:36.254Z,10.07
2023-05-07T06:43:21.106Z,9.80
2023-05-07T06:46:06.426Z,9.80
2023-05-07T06:48:51.971Z,10.48
2023-05-07T06:51:37.267Z,8.93
2023-05-07T06:54:24.312Z,9.23
2023-05-07T06:57:10.001Z,9.73
2023-05-07T06:59:55.107Z,8.77
2023-05-07T07:02:40.651Z,9.10
2023-05-07T07:05:26.280Z,9.02
2023-05-07T07:08:11.725Z,9.48
2023-05-07T07:10:57.029Z,9.32
2023-05-07T07:13:43.788Z,9.77
2023-05-07T07:16:29.113Z,9.68
2023-05-07T07:19:16.237Z,8.45
2023-05-07T07:22:01.919Z,9.45
2023-05-07T07:24:47.156Z,8.35
2023-05-07T07:27:32.562Z,8.85
2023-05-07T07:30:17.809Z,8.68
2023-05-07T07:33:04.322Z,9.32
2023-05-07T07:35:49.416Z,9.43
2023-05-07T07:38:35.150Z,7.32
2023-05-07T07:41:20.649Z,9.93
2023-05-07T07:44:08.565Z,8.65
2023-05-07T07:46:53.849Z,8.68
2023-05-07T07:49:39.411Z,7.72
2023-05-07T07:52:24.644Z,7.75
2023-05-07T07:55:10.333Z,7.47
2023-05-07T07:57:55.470Z,6.53
2023-05-07T08:00:40.958Z,7.05
2023-05-07T08:03:26.312Z,7.45
2023-05-07T08:06:11.662Z,6.38
2023-05-07T08:08:56.969Z,7.22
2023-05-07T08:11:42.429Z,6.60
2023-05-07T08:14:29.308Z,6.00
2023-05-07T08:17:16.972Z,7.45
2023-05-07T08:20:02.344Z,6.50
2023-05-07T08:22:47.638Z,6.90
2023-05-07T08:25:35.086Z,6.28
2023-05-07T08:28:21.337Z,7.47
2023-05-07T08:31:06.748Z,5.90
2023-05-07T08:33:52.015Z,6.68
2023-05-07T08:36:37.293Z,5.95
2023-05-07T08:39:22.680Z,5.53
2023-05-07T08:42:10.037Z,5.50
2023-05-07T08:45:00.313Z,4.88
2023-05-07T08:47:48.103Z,5.88
2023-05-07T08:50:37.259Z,6.82
2023-05-07T08:53:22.760Z,6.07
2023-05-07T08:56:09.820Z,6.38
2023-05-07T08:58:57.706Z,4.57
2023-05-07T09:01:43.376Z,5.15
2023-05-07T09:04:28.936Z,4.07
2023-05-07T09:07:14.440Z,4.05
2023-05-07T09:10:02.214Z,4.10
2023-05-07T09:12:48.144Z,3.60
2023-05-07T09:15:33.435Z,4.30
2023-05-07T09:18:18.704Z,3.38
2023-05-07T09:21:04.096Z,4.60
2023-05-07T09:23:51.754Z,5.40
2023-05-07T09:26:36.865Z,3.35
2023-05-07T09:29:22.282Z,3.30
2023-05-07T09:32:08.909Z,3.13
2023-05-07T09:34:54.360Z,3.03
2023-05-07T09:37:39.808Z,2.92
2023-05-07T09:40:27.377Z,2.22
2023-05-07T09:43:14.759Z,2.50
2023-05-07T09:46:03.417Z,1.83
2023-05-07T09:48:49.849Z,1.90
2023-05-07T09:51:46.789Z,1.42
2023-05-07T09:54:33.948Z,1.48
2023-05-07T09:57:21.626Z,1.60
2023-05-07T10:00:10.357Z,2.13
2023-05-07T10:02:58.888Z,1.55
2023-05-07T10:05:45.617Z,1.65
2023-05-07T10:08:31.900Z,1.25
2023-05-07T10:11:17.614Z,1.38
2023-05-07T10:14:09.801Z,1.25
2023-05-07T10:16:55.532Z,1.30
2023-05-07T10:19:42.135Z,1.30
2023-05-07T10:22:28.588Z,1.02
2023-05-07T10:25:26.809Z,1.42
2023-05-07T10:28:13.334Z,1.17
2023-05-07T10:31:10.239Z,1.30
2023-05-07T10:33:57.806Z,1.40
2023-05-07T10:36:43.484Z,1.38
2023-05-07T10:39:28.844Z,1.20
2023-05-07T10:42:15.995Z,1.63
2023-05-07T10:45:14.260Z,1.20
2023-05-07T10:48:27.196Z,1.20
2023-05-07T10:51:22.952Z,1.45
2023-05-07T10:54:14.506Z,1.65
2023-05-07T10:57:38.009Z,2.00
2023-05-07T11:00:38.986Z,1.60
2023-05-07T11:03:25.987Z,1.77
2023-05-07T11:06:12.728Z,2.20
2023-05-07T11:08:59.062Z,1.77
2023-05-07T11:11:56.856Z,1.60
2023-05-07T11:14:42.351Z,1.63
2023-05-07T11:17:28.210Z,1.90
2023-05-07T11:20:13.627Z,2.25
2023-05-07T11:22:59.058Z,1.92
2023-05-07T11:25:44.806Z,2.05
2023-05-07T11:28:31.327Z,2.40
2023-05-07T11:31:22.558Z,3.10
2023-05-07T11:34:08.995Z,2.40
2023-05-07T11:36:54.673Z,2.20
2023-05-07T11:39:39.677Z,2.25
2023-05-07T11:42:31.695Z,2.40
2023-05-07T11:45:26.359Z,2.40
2023-05-07T11:48:11.511Z,3.05
2023-05-07T11:50:59.761Z,3.00
2023-05-07T11:53:46.503Z,2.42
2023-05-07T11:56:36.359Z,2.45
2023-05-07T11:59:21.658Z,2.45
2023-05-07T12:02:08.488Z,2.80
2023-05-07T12:04:55.218Z,2.53
2023-05-07T12:07:40.775Z,2.78
2023-05-07T12:10:26.458Z,3.30
2023-05-07T12:13:21.034Z,9.50
2023-05-07T12:16:07.692Z,3.78
2023-05-07T12:18:56.035Z,5.07
2023-05-07T12:21:41.975Z,3.15
2023-05-07T12:24:27.213Z,2.78
2023-05-07T12:27:12.745Z,3.35
2023-05-07T12:30:00.272Z,3.92
2023-05-07T12:32:46.678Z,4.15
2023-05-07T12:35:36.859Z,3.63
2023-05-07T12:38:22.538Z,3.22
2023-05-07T12:41:09.985Z,3.72
2023-05-07T12:43:58.734Z,3.58
2023-05-07T12:46:44.287Z,3.00
2023-05-07T12:49:29.506Z,2.72
2023-05-07T12:52:14.957Z,2.90
2023-05-07T12:55:07.695Z,3.20
2023-05-07T12:57:54.531Z,3.25
2023-05-07T13:00:39.962Z,2.33
2023-05-07T13:03:37.460Z,2.95
2023-05-07T13:06:22.910Z,14.02
2023-05-07T13:09:08.103Z,3.10
2023-05-07T13:11:53.547Z,4.38
2023-05-07T13:14:38.834Z,3.17
2023-05-07T13:17:24.229Z,2.90
2023-05-07T13:20:13.914Z,3.15
2023-05-07T13:23:02.097Z,3.00
2023-05-07T13:25:47.533Z,3.67
2023-05-07T13:28:32.710Z,3.47
2023-05-07T13:31:18.876Z,3.40
2023-05-07T13:34:04.113Z,3.55
2023-05-07T13:36:49.574Z,3.28
2023-05-07T13:39:34.996Z,3.40
2023-05-07T13:42:20.522Z,3.63
2023-05-07T13:45:06.129Z,5.90
2023-05-07T13:47:51.662Z,11.68
2023-05-07T13:50:36.935Z,7.78
2023-05-07T13:53:22.186Z,8.40
2023-05-07T13:56:07.468Z,5.80
2023-05-07T13:59:00.165Z,6.25
2023-05-07T14:01:46.078Z,6.43
2023-05-07T14:04:32.352Z,6.32
2023-05-07T14:07:17.692Z,6.97
2023-05-07T14:10:03.608Z,6.70
2023-05-07T14:12:48.976Z,6.03
2023-05-07T14:15:34.529Z,6.38
2023-05-07T14:18:19.752Z,6.90
2023-05-07T14:21:07.360Z,7.70
2023-05-07T14:23:52.934Z,6.95
2023-05-07T14:26:38.255Z,7.82
2023-05-07T14:29:24.476Z,7.00
2023-05-07T14:32:10.130Z,6.90
2023-05-07T14:34:55.101Z,7.40
2023-05-07T14:37:40.353Z,8.65
2023-05-07T14:40:25.642Z,9.25
2023-05-07T14:43:11.256Z,8.00
2023-05-07T14:45:56.312Z,7.82
2023-05-07T14:48:41.619Z,7.18
2023-05-07T14:51:29.158Z,8.10
2023-05-07T14:54:15.166Z,7.18
2023-05-07T14:57:00.905Z,8.10
2023-05-07T14:59:46.325Z,7.20
2023-05-07T15:02:31.688Z,6.82
2023-05-07T15:05:18.512Z,8.40
2023-05-07T15:08:03.972Z,6.93
2023-05-07T15:10:50.630Z,6.72
2023-05-07T15:13:35.783Z,10.18
2023-05-07T15:16:21.399Z,8.48
2023-05-07T15:19:06.997Z,9.10
2023-05-07T15:21:52.828Z,7.53
2023-05-07T15:24:40.104Z,8.65
2023-05-07T15:27:25.734Z,6.95
2023-05-07T15:30:11.876Z,7.53
2023-05-07T15:32:57.322Z,11.63
2023-05-07T15:35:42.688Z,8.35
2023-05-07T15:38:29.232Z,7.72
2023-05-07T15:41:14.660Z,8.45
2023-05-07T15:43:59.934Z,11.98
2023-05-07T15:46:45.326Z,9.88
2023-05-07T15:49:30.631Z,8.82
2023-05-07T15:52:16.848Z,10.15
2023-05-07T15:55:03.787Z,8.40
2023-05-07T15:57:49.454Z,7.82
2023-05-07T16:00:36.630Z,9.95
2023-05-07T16:03:23.004Z,9.52
2023-05-07T16:06:08.617Z,10.15
2023-05-07T16:08:55.351Z,11.85
2023-05-07T16:11:40.839Z,9.70
2023-05-07T16:14:25.975Z,10.35
2023-05-07T16:17:11.202Z,8.70
2023-05-07T16:19:59.087Z,7.43
2023-05-07T16:22:44.515Z,8.02
2023-05-07T16:25:30.485Z,7.30
2023-05-07T16:28:16.041Z,7.93
2023-05-07T16:31:19.637Z,8.50
2023-05-07T16:34:05.674Z,10.10
2023-05-07T16:36:51.050Z,9.23
2023-05-07T16:39:36.441Z,8.23
2023-05-07T16:42:21.834Z,12.75
2023-05-07T16:45:07.508Z,8.20
2023-05-07T16:47:54.011Z,9.13
2023-05-07T16:50:39.225Z,7.53
2023-05-07T16:53:24.551Z,10.02
2023-05-07T16:56:09.788Z,11.30
2023-05-07T16:58:55.667Z,7.82
2023-05-07T17:01:42.850Z,7.53
2023-05-07T17:04:29.950Z,7.32
2023-05-07T17:07:16.359Z,7.60
2023-05-07T17:10:02.445Z,6.85
2023-05-07T17:12:47.867Z,7.43
2023-05-07T17:15:32.988Z,12.73
2023-05-07T17:18:18.309Z,8.65
2023-05-07T17:21:03.532Z,8.45
2023-05-07T17:23:49.026Z,7.57
2023-05-07T17:26:36.481Z,8.25
2023-05-07T17:29:21.988Z,6.30
2023-05-07T17:32:08.556Z,6.70
2023-05-07T17:34:54.034Z,6.95
2023-05-07T17:37:39.451Z,6.90
2023-05-07T17:40:26.599Z,6.60
2023-05-07T17:43:11.985Z,6.18
2023-05-07T17:45:57.486Z,5.95
2023-05-07T17:48:42.636Z,6.28
2023-05-07T17:51:36.166Z,6.15
2023-05-07T17:54:26.272Z,6.35
2023-05-07T17:57:11.764Z,6.03
2023-05-07T17:59:58.034Z,6.63
2023-05-07T18:02:43.256Z,6.03
2023-05-07T18:05:29.492Z,5.85
2023-05-07T18:08:16.280Z,5.63
2023-05-07T18:11:03.116Z,5.60
2023-05-07T18:13:48.744Z,5.28
2023-05-07T18:16:34.887Z,6.97
2023-05-07T18:19:22.325Z,5.20
2023-05-07T18:22:07.457Z,4.95
2023-05-07T18:24:55.107Z,5.82
2023-05-07T18:27:40.561Z,5.82
2023-05-07T18:30:26.365Z,4.97
2023-05-07T18:33:11.625Z,4.75
2023-05-07T18:35:57.652Z,6.38
2023-05-07T18:38:43.065Z,5.85
2023-05-07T18:41:28.607Z,5.22
2023-05-07T18:44:14.007Z,4.28
2023-05-07T18:47:00.823Z,3.50
2023-05-07T18:49:47.410Z,4.82
2023-05-07T18:52:32.707Z,5.07
2023-05-07T18:55:20.070Z,6.93
2023-05-07T18:58:06.561Z,4.82
2023-05-07T19:00:51.799Z,7.72
2023-05-07T19:03:37.410Z,7.97
2023-05-07T19:06:22.767Z,6.82
2023-05-07T19:09:08.169Z,9.05
2023-05-07T19:11:53.959Z,4.80
2023-05-07T19:14:43.011Z,4.85
2023-05-07T19:17:28.280Z,6.82
2023-05-07T19:20:13.781Z,5.28
2023-05-07T19:22:59.044Z,4.38
2023-05-07T19:25:44.630Z,4.68
2023-05-07T19:28:30.509Z,7.47
2023-05-07T19:31:23.624Z,6.90
2023-05-07T19:34:09.205Z,5.53
2023-05-07T19:36:56.295Z,4.18
2023-05-07T19:39:41.678Z,5.35
2023-05-07T19:42:27.287Z,3.72
2023-05-07T19:45:15.459Z,5.45
2023-05-07T19:48:01.682Z,4.05
2023-05-07T19:50:49.814Z,3.40
2023-05-07T19:53:35.325Z,4.03
2023-05-07T19:56:22.321Z,3.20
2023-05-07T19:59:09.470Z,3.75
2023-05-07T20:01:55.073Z,4.30
2023-05-07T20:04:40.500Z,3.60
2023-05-07T20:07:27.142Z,4.10
2023-05-07T20:10:12.900Z,4.45
2023-05-07T20:12:58.450Z,4.25
2023-05-07T20:15:46.924Z,3.75
2023-05-07T20:18:32.628Z,3.60
2023-05-07T20:21:17.696Z,4.45
2023-05-07T20:24:03.227Z,4.65
2023-05-07T20:26:48.542Z,4.97
2023-05-07T20:29:34.228Z,4.68
2023-05-07T20:32:20.470Z,6.18
2023-05-07T20:35:07.179Z,4.82
2023-05-07T20:37:52.621Z,4.28
2023-05-07T20:40:38.016Z,3.75
2023-05-07T20:43:23.705Z,3.00
2023-05-07T20:46:09.334Z,2.92
2023-05-07T20:48:55.124Z,2.83
2023-05-07T20:51:40.405Z,2.40
2023-05-07T20:54:28.098Z,2.40
2023-05-07T20:57:14.469Z,3.15
2023-05-07T20:59:59.880Z,3.38
2023-05-07T21:02:45.639Z,3.20
2023-05-07T21:05:32.532Z,4.55
2023-05-07T21:08:18.183Z,2.78
2023-05-07T21:11:03.240Z,2.67
2023-05-07T21:13:48.648Z,2.60
2023-05-07T21:16:34.012Z,2.35
2023-05-07T21:19:19.336Z,2.85
2023-05-07T21:22:05.319Z,2.42
2023-05-07T21:24:50.531Z,2.65
2023-05-07T21:27:35.827Z,4.22
2023-05-07T21:30:21.201Z,2.65
2023-05-07T21:33:08.377Z,2.88
2023-05-07T21:35:54.180Z,3.72
2023-05-07T21:38:40.389Z,3.47
2023-05-07T21:41:26.185Z,3.15
2023-05-07T21:44:11.660Z,3.15
2023-05-07T21:46:57.051Z,2.92
2023-05-07T21:49:42.521Z,2.13
2023-05-07T21:52:27.811Z,2.83
2023-05-07T21:55:13.289Z,2.78
2023-05-07T21:58:05.574Z,3.47
2023-05-07T22:00:51.499Z,2.53
2023-05-07T22:03:36.826Z,2.80
2023-05-07T22:06:22.590Z,2.65
2023-05-07T22:09:07.973Z,2.60
2023-05-07T22:11:52.998Z,2.42
2023-05-07T22:14:38.252Z,2.40
2023-05-07T22:17:24.558Z,2.40
2023-05-07T22:20:10.775Z,2.60
2023-05-07T22:22:56.900Z,2.00
2023-05-07T22:25:42.196Z,2.35
2023-05-07T22:28:27.418Z,2.70
2023-05-07T22:31:12.616Z,2.10
2023-05-07T22:33:58.015Z,2.42
2023-05-07T22:36:43.276Z,2.47
2023-05-07T22:39:31.220Z,2.80
2023-05-07T22:42:16.648Z,2.33
2023-05-07T22:45:01.929Z,3.63
2023-05-07T22:47:47.280Z,2.50
2023-05-07T22:50:37.783Z,2.30
2023-05-07T22:53:23.700Z,2.53
2023-05-07T22:56:09.975Z,3.15
2023-05-07T22:58:55.125Z,2.83
2023-05-07T23:01:40.714Z,2.33
2023-05-07T23:04:26.810Z,2.85
2023-05-07T23:07:12.112Z,2.60
2023-05-07T23:09:57.555Z,2.30
2023-05-07T23:12:43.901Z,2.33
2023-05-07T23:15:29.160Z,2.35
2023-05-07T23:18:14.514Z,2.30
2023-05-07T23:20:59.897Z,2.50
2023-05-07T23:23:45.157Z,2.25
2023-05-07T23:26:30.429Z,2.30
2023-05-07T23:29:15.691Z,2.70
2023-05-07T23:32:01.273Z,2.60
2023-05-07T23:34:50.288Z,2.47
2023-05-07T23:37:35.771Z,2.75
2023-05-07T23:40:20.858Z,2.80
2023-05-07T23:43:06.003Z,2.50
2023-05-07T23:45:51.751Z,3.15
2023-05-07T23:48:37.202Z,3.45
2023-05-07T23:51:22.540Z,3.47
2023-05-07T23:54:07.911Z,3.83
2023-05-07T23:56:53.190Z,3.45
2023-05-07T23:59:38.490Z,3.22
